createdAt,value
2018-06-18T00:02:02.227Z,6.97
2018-06-18T00:07:31.421Z,7.03
2018-06-18T00:13:00.615Z,7.33
2018-06-18T00:18:29.858Z,6.45
2018-06-18T00:23:59.060Z,5.87
2018-06-18T00:29:28.267Z,7.35
2018-06-18T00:34:57.473Z,7.17
2018-06-18T00:40:26.715Z,7.22
2018-06-18T00:45:55.963Z,7.75
2018-06-18T00:51:25.328Z,8.43
2018-06-18T00:56:54.826Z,7.20
2018-06-18T01:02:24.295Z,9.33
2018-06-18T01:07:53.661Z,9.33
2018-06-18T01:13:23.101Z,8.73
2018-06-18T01:18:52.609Z,8.65
2018-06-18T01:25:25.207Z,9.98
2018-06-18T01:30:54.539Z,8.20
2018-06-18T01:36:24.005Z,8.00
2018-06-18T01:41:54.053Z,8.63
2018-06-18T01:47:23.645Z,7.55
2018-06-18T01:52:53.134Z,6.95
2018-06-18T01:58:22.497Z,7.42
2018-06-18T02:03:51.979Z,7.62
2018-06-18T02:09:21.580Z,7.78
2018-06-18T02:14:51.052Z,7.53
2018-06-18T02:20:20.643Z,8.18
2018-06-18T02:25:50.090Z,6.92
2018-06-18T02:31:24.681Z,7.25
2018-06-18T02:36:59.289Z,8.13
2018-06-18T02:42:28.494Z,7.55
2018-06-18T02:47:57.657Z,7.47
2018-06-18T02:53:27.209Z,6.70
2018-06-18T02:58:56.411Z,7.70
2018-06-18T03:04:25.711Z,7.28
2018-06-18T03:09:54.957Z,7.42
2018-06-18T03:15:24.572Z,8.30
2018-06-18T03:20:59.417Z,7.78
2018-06-18T03:26:33.800Z,8.50
2018-06-18T03:32:12.295Z,7.95
2018-06-18T03:37:42.578Z,7.72
2018-06-18T03:43:12.372Z,8.13
2018-06-18T03:48:43.694Z,7.90
2018-06-18T03:54:14.239Z,7.60
2018-06-18T03:59:44.619Z,9.13
2018-06-18T04:05:19.745Z,8.45
2018-06-18T04:10:54.710Z,7.92
2018-06-18T04:16:24.498Z,8.85
2018-06-18T04:21:54.119Z,8.75
2018-06-18T04:27:23.639Z,8.90
2018-06-18T04:32:53.831Z,8.00
2018-06-18T04:38:23.183Z,7.78
2018-06-18T04:43:57.795Z,7.97
2018-06-18T04:49:32.334Z,8.23
2018-06-18T04:55:01.499Z,8.43
2018-06-18T05:01:21.068Z,8.18
2018-06-18T05:06:50.579Z,7.50
2018-06-18T05:12:20.505Z,7.83
2018-06-18T05:17:51.548Z,5.20
2018-06-18T05:23:21.227Z,6.70
2018-06-18T05:28:51.033Z,6.05
2018-06-18T05:34:24.860Z,5.90
2018-06-18T05:39:54.587Z,5.78
2018-06-18T05:45:24.009Z,5.47
2018-06-18T05:50:53.656Z,5.20
2018-06-18T05:56:23.144Z,4.92
2018-06-18T06:01:52.669Z,5.50
2018-06-18T06:07:22.279Z,5.87
2018-06-18T06:12:51.939Z,4.45
2018-06-18T06:18:21.571Z,4.75
2018-06-18T06:23:51.095Z,6.05
2018-06-18T06:29:20.628Z,5.72
2018-06-18T06:34:57.318Z,5.28
2018-06-18T06:40:26.854Z,4.60
2018-06-18T06:45:56.380Z,4.00
2018-06-18T06:51:26.156Z,4.85
2018-06-18T06:56:55.780Z,4.47
2018-06-18T07:02:25.047Z,4.97
2018-06-18T07:07:54.598Z,4.85
2018-06-18T07:13:24.103Z,4.37
2018-06-18T07:18:53.884Z,4.40
2018-06-18T07:24:23.748Z,4.78
2018-06-18T07:29:53.616Z,3.92
2018-06-18T07:35:23.323Z,3.52
2018-06-18T07:40:53.235Z,5.15
2018-06-18T07:46:23.368Z,4.35
2018-06-18T07:51:53.329Z,4.90
2018-06-18T07:57:23.188Z,4.25
2018-06-18T08:02:52.490Z,4.42
2018-06-18T08:08:22.000Z,4.75
2018-06-18T08:13:51.433Z,4.10
2018-06-18T08:19:21.063Z,4.75
2018-06-18T08:24:51.406Z,4.12
2018-06-18T08:30:20.745Z,3.83
2018-06-18T08:35:50.150Z,4.30
2018-06-18T08:41:19.524Z,4.05
2018-06-18T08:46:49.022Z,3.90
2018-06-18T08:52:23.584Z,4.87
2018-06-18T08:57:58.448Z,3.37
2018-06-18T09:03:27.683Z,4.58
2018-06-18T09:08:58.038Z,3.47
2018-06-18T09:14:27.288Z,5.22
2018-06-18T09:19:57.218Z,4.83
2018-06-18T09:25:26.746Z,5.00
2018-06-18T09:30:57.469Z,4.47
2018-06-18T09:36:27.734Z,5.47
2018-06-18T09:41:57.320Z,5.72
2018-06-18T09:47:26.610Z,4.20
2018-06-18T09:53:00.975Z,5.30
2018-06-18T09:58:35.412Z,5.10
2018-06-18T10:04:05.500Z,4.60
2018-06-18T10:09:34.672Z,4.95
2018-06-18T10:15:03.876Z,5.90
2018-06-18T10:20:33.088Z,5.37
2018-06-18T10:26:02.313Z,4.58
2018-06-18T10:31:31.512Z,5.22
2018-06-18T10:37:05.919Z,5.45
2018-06-18T10:42:40.388Z,4.67
2018-06-18T10:48:09.737Z,5.17
2018-06-18T10:53:40.692Z,4.60
2018-06-18T10:59:11.908Z,5.80
2018-06-18T11:04:46.398Z,4.65
2018-06-18T11:10:17.141Z,4.53
2018-06-18T11:15:46.977Z,4.62
2018-06-18T11:21:22.327Z,4.47
2018-06-18T11:26:57.195Z,4.15
2018-06-18T11:32:26.745Z,4.95
2018-06-18T11:37:56.033Z,4.72
2018-06-18T11:43:25.449Z,4.92
2018-06-18T11:48:54.685Z,4.20
2018-06-18T11:54:24.717Z,4.17
2018-06-18T11:59:59.405Z,3.50
2018-06-18T12:05:33.990Z,3.37
2018-06-18T12:11:03.144Z,3.50
2018-06-18T12:16:36.518Z,3.67
2018-06-18T12:22:05.731Z,3.62
2018-06-18T12:27:35.984Z,3.42
2018-06-18T12:33:05.209Z,2.95
2018-06-18T12:38:34.426Z,3.87
2018-06-18T12:44:03.682Z,3.70
2018-06-18T12:49:38.429Z,3.47
2018-06-18T12:55:13.025Z,3.60
2018-06-18T13:00:45.811Z,2.90
2018-06-18T13:06:15.854Z,3.62
2018-06-18T13:11:47.868Z,3.17
2018-06-18T13:17:19.096Z,3.67
2018-06-18T13:22:48.520Z,3.20
2018-06-18T13:28:18.857Z,2.50
2018-06-18T13:33:49.112Z,3.12
2018-06-18T13:39:24.413Z,3.17
2018-06-18T13:44:59.388Z,2.83
2018-06-18T13:50:28.691Z,3.22
2018-06-18T13:55:57.918Z,3.40
2018-06-18T14:01:27.505Z,3.12
2018-06-18T14:06:56.838Z,3.40
2018-06-18T14:12:26.398Z,2.80
2018-06-18T14:17:55.709Z,2.70
2018-06-18T14:23:25.718Z,3.33
2018-06-18T14:28:54.962Z,2.92
2018-06-18T14:34:29.995Z,3.25
2018-06-18T14:40:18.284Z,3.08
2018-06-18T14:45:47.804Z,3.12
2018-06-18T14:51:17.241Z,3.30
2018-06-18T14:56:48.059Z,2.90
2018-06-18T15:02:17.621Z,2.98
2018-06-18T15:07:47.512Z,2.72
2018-06-18T15:13:17.741Z,2.95
2018-06-18T15:18:47.288Z,3.10
2018-06-18T15:24:24.205Z,2.90
2018-06-18T15:29:53.746Z,3.37
2018-06-18T15:35:23.241Z,2.90
2018-06-18T15:40:53.004Z,2.70
2018-06-18T15:46:22.348Z,3.17
2018-06-18T15:51:51.845Z,3.08
2018-06-18T15:57:21.893Z,2.60
2018-06-18T16:02:52.143Z,2.83
2018-06-18T16:08:23.319Z,3.30
2018-06-18T16:13:52.298Z,2.90
2018-06-18T16:19:21.611Z,3.25
2018-06-18T16:24:51.152Z,2.80
2018-06-18T16:30:20.677Z,3.00
2018-06-18T16:35:51.918Z,3.35
2018-06-18T16:41:23.386Z,3.05
2018-06-18T16:46:52.600Z,3.08
2018-06-18T16:52:23.558Z,3.67
2018-06-18T16:57:54.520Z,2.72
2018-06-18T17:03:23.756Z,3.05
2018-06-18T17:08:52.943Z,2.70
2018-06-18T17:14:22.163Z,2.10
2018-06-18T17:19:51.880Z,2.98
2018-06-18T17:25:21.849Z,2.40
2018-06-18T17:30:51.853Z,3.42
2018-06-18T17:36:21.595Z,3.12
2018-06-18T17:41:51.289Z,3.12
2018-06-18T17:47:20.819Z,3.35
2018-06-18T17:52:50.722Z,3.47
2018-06-18T17:58:20.311Z,2.98
2018-06-18T18:03:49.925Z,3.17
2018-06-18T18:09:19.703Z,3.40
2018-06-18T18:14:49.829Z,2.85
2018-06-18T18:20:20.112Z,2.65
2018-06-18T18:25:49.826Z,3.60
2018-06-18T18:31:19.773Z,3.37
2018-06-18T18:36:49.439Z,3.75
2018-06-18T18:42:19.054Z,3.02
2018-06-18T18:47:49.013Z,2.58
2018-06-18T18:53:18.573Z,3.17
2018-06-18T18:59:29.212Z,2.92
2018-06-18T19:04:59.273Z,3.05
2018-06-18T19:10:32.475Z,5.53
2018-06-18T19:16:01.785Z,5.85
2018-06-18T19:21:31.011Z,17.40
2018-06-18T19:27:00.399Z,15.50
2018-06-18T19:32:29.655Z,32.65
2018-06-18T19:37:59.022Z,12.05
2018-06-18T19:43:28.196Z,10.90
2018-06-18T19:49:05.136Z,14.58
2018-06-18T19:54:40.637Z,9.80
2018-06-18T20:00:12.238Z,10.50
2018-06-18T20:05:43.916Z,10.60
2018-06-18T20:11:14.126Z,4.60
2018-06-18T20:16:44.185Z,6.62
2018-06-18T20:22:14.117Z,6.20
2018-06-18T20:27:44.320Z,6.58
2018-06-18T20:33:16.195Z,6.10
2018-06-18T20:38:46.183Z,5.20
2018-06-18T20:44:20.730Z,6.12
2018-06-18T20:49:50.163Z,5.67
2018-06-18T20:55:19.664Z,5.33
2018-06-18T21:00:49.063Z,5.12
2018-06-18T21:06:18.458Z,6.08
2018-06-18T21:11:47.995Z,5.37
2018-06-18T21:17:17.453Z,5.95
2018-06-18T21:22:47.102Z,5.75
2018-06-18T21:28:16.750Z,6.97
2018-06-18T21:33:47.185Z,6.55
2018-06-18T21:39:16.943Z,8.58
2018-06-18T21:45:49.743Z,7.97
2018-06-18T21:51:19.422Z,6.37
2018-06-18T21:56:49.028Z,6.03
2018-06-18T22:02:18.513Z,6.40
2018-06-18T22:07:48.093Z,7.67
2018-06-18T22:13:17.621Z,7.55
2018-06-18T22:18:47.142Z,8.70
2018-06-18T22:24:16.969Z,7.75
2018-06-18T22:29:46.752Z,8.08
2018-06-18T22:35:16.508Z,7.75
2018-06-18T22:40:46.249Z,7.40
2018-06-18T22:46:16.674Z,7.22
2018-06-18T22:51:46.502Z,7.22
2018-06-18T22:57:16.479Z,7.58
2018-06-18T23:02:46.709Z,7.50
2018-06-18T23:08:18.170Z,7.28
2018-06-18T23:13:47.883Z,7.87
2018-06-18T23:19:17.528Z,8.00
2018-06-18T23:24:48.143Z,7.53
2018-06-18T23:30:17.606Z,7.60
2018-06-18T23:35:47.337Z,6.72
2018-06-18T23:41:17.298Z,7.42
2018-06-18T23:46:47.161Z,6.97
2018-06-18T23:52:16.895Z,8.65
2018-06-18T23:57:46.786Z,8.35
